sensor_id;sensor_type;location;lat;lon;timestamp;temperature;humidity
19174;DHT22;9719;49.322;8.536;2023-04-01T00:04:32;11.70;99.90
19174;DHT22;9719;49.322;8.536;2023-04-01T00:09:34;11.60;99.90
19174;DHT22;9719;49.322;8.536;2023-04-01T00:14:36;11.60;99.90
19174;DHT22;9719;49.322;8.536;2023-04-01T00:19:41;11.60;99.90
19174;DHT22;9719;49.322;8.536;2023-04-01T00:24:44;11.60;99.90
19174;DHT22;9719;49.322;8.536;2023-04-01T00:29:46;11.50;99.90
19174;DHT22;9719;49.322;8.536;2023-04-01T00:34:51;11.50;99.90
19174;DHT22;9719;49.322;8.536;2023-04-01T00:39:54;11.40;99.90
19174;DHT22;9719;49.322;8.536;2023-04-01T00:44:56;11.40;99.90
19174;DHT22;9719;49.322;8.536;2023-04-01T00:49:59;11.30;99.90
19174;DHT22;9719;49.322;8.536;2023-04-01T00:55:02;11.40;99.90
19174;DHT22;9719;49.322;8.536;2023-04-01T01:00:09;11.40;99.90
19174;DHT22;9719;49.322;8.536;2023-04-01T01:05:16;11.40;99.90
19174;DHT22;9719;49.322;8.536;2023-04-01T01:10:22;11.50;99.90
19174;DHT22;9719;49.322;8.536;2023-04-01T01:15:26;11.50;99.90
19174;DHT22;9719;49.322;8.536;2023-04-01T01:20:57;11.50;99.90
19174;DHT22;9719;49.322;8.536;2023-04-01T01:26:21;11.60;99.90
19174;DHT22;9719;49.322;8.536;2023-04-01T01:31:34;11.60;99.90
19174;DHT22;9719;49.322;8.536;2023-04-01T01:36:42;11.70;99.90
19174;DHT22;9719;49.322;8.536;2023-04-01T01:41:47;11.70;99.90
19174;DHT22;9719;49.322;8.536;2023-04-01T01:46:50;11.70;99.90
19174;DHT22;9719;49.322;8.536;2023-04-01T01:51:54;11.80;99.90
19174;DHT22;9719;49.322;8.536;2023-04-01T01:57:03;11.80;99.90
19174;DHT22;9719;49.322;8.536;2023-04-01T02:02:06;11.80;99.90
19174;DHT22;9719;49.322;8.536;2023-04-01T02:07:16;11.90;99.90
19174;DHT22;9719;49.322;8.536;2023-04-01T02:12:21;11.90;99.90
19174;DHT22;9719;49.322;8.536;2023-04-01T02:17:26;11.90;99.90
19174;DHT22;9719;49.322;8.536;2023-04-01T02:22:33;11.90;99.90
19174;DHT22;9719;49.322;8.536;2023-04-01T02:27:37;11.90;99.90
19174;DHT22;9719;49.322;8.536;2023-04-01T02:32:40;12.00;99.90
19174;DHT22;9719;49.322;8.536;2023-04-01T02:37:45;12.00;99.90
19174;DHT22;9719;49.322;8.536;2023-04-01T02:42:49;12.00;99.90
19174;DHT22;9719;49.322;8.536;2023-04-01T02:47:51;12.00;99.90
19174;DHT22;9719;49.322;8.536;2023-04-01T02:52:54;12.00;99.90
19174;DHT22;9719;49.322;8.536;2023-04-01T02:57:56;12.00;99.90
19174;DHT22;9719;49.322;8.536;2023-04-01T03:02:58;11.90;99.90
19174;DHT22;9719;49.322;8.536;2023-04-01T03:08:02;11.80;99.90
19174;DHT22;9719;49.322;8.536;2023-04-01T03:13:03;11.90;99.90
19174;DHT22;9719;49.322;8.536;2023-04-01T03:18:06;11.90;99.90
19174;DHT22;9719;49.322;8.536;2023-04-01T03:23:09;11.90;99.90
19174;DHT22;9719;49.322;8.536;2023-04-01T03:28:11;12.00;99.90
19174;DHT22;9719;49.322;8.536;2023-04-01T03:33:13;12.10;99.90
19174;DHT22;9719;49.322;8.536;2023-04-01T03:38:17;12.10;99.90
19174;DHT22;9719;49.322;8.536;2023-04-01T03:43:19;12.10;99.90
19174;DHT22;9719;49.322;8.536;2023-04-01T03:48:21;12.00;99.90
19174;DHT22;9719;49.322;8.536;2023-04-01T03:53:24;11.80;99.90
19174;DHT22;9719;49.322;8.536;2023-04-01T03:58:27;11.80;99.90
19174;DHT22;9719;49.322;8.536;2023-04-01T04:03:29;11.80;99.90
19174;DHT22;9719;49.322;8.536;2023-04-01T04:08:32;11.80;99.90
19174;DHT22;9719;49.322;8.536;2023-04-01T04:13:34;11.70;99.90
19174;DHT22;9719;49.322;8.536;2023-04-01T04:18:36;11.50;99.90
19174;DHT22;9719;49.322;8.536;2023-04-01T04:23:39;11.40;99.90
19174;DHT22;9719;49.322;8.536;2023-04-01T04:28:41;11.20;99.90
19174;DHT22;9719;49.322;8.536;2023-04-01T04:33:43;11.00;99.90
19174;DHT22;9719;49.322;8.536;2023-04-01T04:38:46;10.90;99.90
19174;DHT22;9719;49.322;8.536;2023-04-01T04:43:50;10.80;99.90
19174;DHT22;9719;49.322;8.536;2023-04-01T04:48:52;10.70;99.90
19174;DHT22;9719;49.322;8.536;2023-04-01T04:53:56;10.70;99.90
19174;DHT22;9719;49.322;8.536;2023-04-01T04:58:58;10.70;99.90
19174;DHT22;9719;49.322;8.536;2023-04-01T05:04:00;10.70;99.90
19174;DHT22;9719;49.322;8.536;2023-04-01T05:09:03;10.80;99.90
19174;DHT22;9719;49.322;8.536;2023-04-01T05:14:05;10.80;99.90
19174;DHT22;9719;49.322;8.536;2023-04-01T05:19:07;10.90;99.90
19174;DHT22;9719;49.322;8.536;2023-04-01T05:24:10;11.00;99.90
19174;DHT22;9719;49.322;8.536;2023-04-01T05:29:12;11.10;99.90
19174;DHT22;9719;49.322;8.536;2023-04-01T05:34:14;11.20;99.90
19174;DHT22;9719;49.322;8.536;2023-04-01T05:39:17;11.20;99.90
19174;DHT22;9719;49.322;8.536;2023-04-01T05:44:19;11.40;99.90
19174;DHT22;9719;49.322;8.536;2023-04-01T05:49:21;11.50;99.90
19174;DHT22;9719;49.322;8.536;2023-04-01T05:54:25;11.50;99.90
19174;DHT22;9719;49.322;8.536;2023-04-01T05:59:26;11.60;99.90
19174;DHT22;9719;49.322;8.536;2023-04-01T06:04:34;11.70;99.90
19174;DHT22;9719;49.322;8.536;2023-04-01T06:09:39;11.80;99.90
19174;DHT22;9719;49.322;8.536;2023-04-01T06:14:46;11.80;99.90
19174;DHT22;9719;49.322;8.536;2023-04-01T06:19:54;12.00;99.90
19174;DHT22;9719;49.322;8.536;2023-04-01T06:30:38;12.00;99.90
19174;DHT22;9719;49.322;8.536;2023-04-01T06:35:59;11.90;99.90
19174;DHT22;9719;49.322;8.536;2023-04-01T06:41:31;11.80;99.90
19174;DHT22;9719;49.322;8.536;2023-04-01T06:46:43;11.50;99.90
19174;DHT22;9719;49.322;8.536;2023-04-01T06:51:51;11.30;99.90
19174;DHT22;9719;49.322;8.536;2023-04-01T06:56:59;11.20;99.90
19174;DHT22;9719;49.322;8.536;2023-04-01T07:02:10;11.20;99.90
19174;DHT22;9719;49.322;8.536;2023-04-01T07:07:27;11.20;99.90
19174;DHT22;9719;49.322;8.536;2023-04-01T07:12:40;11.20;99.90
19174;DHT22;9719;49.322;8.536;2023-04-01T07:17:46;11.30;99.90
19174;DHT22;9719;49.322;8.536;2023-04-01T07:22:50;11.50;99.90
19174;DHT22;9719;49.322;8.536;2023-04-01T07:27:59;11.50;99.90
19174;DHT22;9719;49.322;8.536;2023-04-01T07:33:04;11.60;99.90
19174;DHT22;9719;49.322;8.536;2023-04-01T07:38:18;11.70;99.90
19174;DHT22;9719;49.322;8.536;2023-04-01T07:43:42;11.70;99.90
19174;DHT22;9719;49.322;8.536;2023-04-01T07:48:50;12.10;99.90
19174;DHT22;9719;49.322;8.536;2023-04-01T07:54:03;12.40;99.90
19174;DHT22;9719;49.322;8.536;2023-04-01T07:59:15;12.60;99.90
19174;DHT22;9719;49.322;8.536;2023-04-01T08:04:36;12.60;99.90
19174;DHT22;9719;49.322;8.536;2023-04-01T08:09:46;13.20;99.90
19174;DHT22;9719;49.322;8.536;2023-04-01T08:14:59;13.30;99.90
19174;DHT22;9719;49.322;8.536;2023-04-01T08:20:23;13.40;99.90
19174;DHT22;9719;49.322;8.536;2023-04-01T08:25:28;13.70;99.90
19174;DHT22;9719;49.322;8.536;2023-04-01T08:30:40;14.30;99.90
19174;DHT22;9719;49.322;8.536;2023-04-01T08:35:47;14.90;99.90
19174;DHT22;9719;49.322;8.536;2023-04-01T08:41:00;14.70;99.90
19174;DHT22;9719;49.322;8.536;2023-04-01T08:46:17;14.20;99.90
19174;DHT22;9719;49.322;8.536;2023-04-01T08:56:59;13.30;99.90
19174;DHT22;9719;49.322;8.536;2023-04-01T09:07:41;13.10;99.90
19174;DHT22;9719;49.322;8.536;2023-04-01T09:13:01;13.20;99.90
19174;DHT22;9719;49.322;8.536;2023-04-01T09:18:24;13.40;99.90
19174;DHT22;9719;49.322;8.536;2023-04-01T09:23:56;13.70;99.90
19174;DHT22;9719;49.322;8.536;2023-04-01T09:29:18;13.90;99.90
19174;DHT22;9719;49.322;8.536;2023-04-01T09:34:53;14.10;99.90
19174;DHT22;9719;49.322;8.536;2023-04-01T09:40:14;14.10;99.90
19174;DHT22;9719;49.322;8.536;2023-04-01T09:45:33;14.00;99.90
19174;DHT22;9719;49.322;8.536;2023-04-01T09:50:47;14.00;99.90
19174;DHT22;9719;49.322;8.536;2023-04-01T09:56:22;14.00;99.90
19174;DHT22;9719;49.322;8.536;2023-04-01T10:01:42;14.20;99.90
19174;DHT22;9719;49.322;8.536;2023-04-01T10:18:24;14.80;99.90
19174;DHT22;9719;49.322;8.536;2023-04-01T10:23:55;14.90;99.90
19174;DHT22;9719;49.322;8.536;2023-04-01T10:35:14;14.70;99.90
19174;DHT22;9719;49.322;8.536;2023-04-01T10:40:37;15.00;99.90
19174;DHT22;9719;49.322;8.536;2023-04-01T10:46:21;15.20;99.90
19174;DHT22;9719;49.322;8.536;2023-04-01T10:52:11;15.20;99.90
19174;DHT22;9719;49.322;8.536;2023-04-01T10:57:44;15.00;99.90
19174;DHT22;9719;49.322;8.536;2023-04-01T11:09:07;14.50;99.90
19174;DHT22;9719;49.322;8.536;2023-04-01T11:25:46;13.80;99.90
19174;DHT22;9719;49.322;8.536;2023-04-01T11:31:11;13.60;99.90
19174;DHT22;9719;49.322;8.536;2023-04-01T11:36:35;13.50;99.90
19174;DHT22;9719;49.322;8.536;2023-04-01T11:41:43;13.50;99.90
19174;DHT22;9719;49.322;8.536;2023-04-01T11:47:12;13.50;99.90
19174;DHT22;9719;49.322;8.536;2023-04-01T11:52:57;13.80;99.90
19174;DHT22;9719;49.322;8.536;2023-04-01T12:04:00;14.00;99.90
19174;DHT22;9719;49.322;8.536;2023-04-01T12:09:13;14.00;99.90
19174;DHT22;9719;49.322;8.536;2023-04-01T12:14:24;14.40;99.90
19174;DHT22;9719;49.322;8.536;2023-04-01T12:19:35;14.70;99.90
19174;DHT22;9719;49.322;8.536;2023-04-01T12:24:52;14.70;99.90
19174;DHT22;9719;49.322;8.536;2023-04-01T12:30:23;14.80;99.90
19174;DHT22;9719;49.322;8.536;2023-04-01T12:35:32;14.90;99.90
19174;DHT22;9719;49.322;8.536;2023-04-01T12:40:54;14.80;99.90
19174;DHT22;9719;49.322;8.536;2023-04-01T12:46:05;14.60;99.90
19174;DHT22;9719;49.322;8.536;2023-04-01T12:51:26;14.60;99.90
19174;DHT22;9719;49.322;8.536;2023-04-01T12:56:42;14.50;99.90
19174;DHT22;9719;49.322;8.536;2023-04-01T13:02:01;14.60;99.90
19174;DHT22;9719;49.322;8.536;2023-04-01T13:07:17;14.80;99.90
19174;DHT22;9719;49.322;8.536;2023-04-01T13:12:39;14.70;99.90
19174;DHT22;9719;49.322;8.536;2023-04-01T13:17:49;15.00;99.90
19174;DHT22;9719;49.322;8.536;2023-04-01T13:23:01;15.10;99.90
19174;DHT22;9719;49.322;8.536;2023-04-01T13:28:15;15.20;99.90
19174;DHT22;9719;49.322;8.536;2023-04-01T13:33:25;15.30;99.90
19174;DHT22;9719;49.322;8.536;2023-04-01T13:44:12;15.20;99.90
19174;DHT22;9719;49.322;8.536;2023-04-01T14:00:25;15.30;99.90
19174;DHT22;9719;49.322;8.536;2023-04-01T14:05:48;15.30;99.90
19174;DHT22;9719;49.322;8.536;2023-04-01T14:11:03;15.00;99.90
19174;DHT22;9719;49.322;8.536;2023-04-01T14:16:27;15.00;99.90
19174;DHT22;9719;49.322;8.536;2023-04-01T14:21:37;14.90;99.90
19174;DHT22;9719;49.322;8.536;2023-04-01T14:32:16;14.50;99.90
19174;DHT22;9719;49.322;8.536;2023-04-01T14:37:39;14.50;99.90
19174;DHT22;9719;49.322;8.536;2023-04-01T14:43:20;14.40;99.90
19174;DHT22;9719;49.322;8.536;2023-04-01T14:48:31;14.30;99.90
19174;DHT22;9719;49.322;8.536;2023-04-01T14:53:36;14.10;99.90
19174;DHT22;9719;49.322;8.536;2023-04-01T14:58:43;14.10;99.90
19174;DHT22;9719;49.322;8.536;2023-04-01T15:03:53;14.10;99.90
19174;DHT22;9719;49.322;8.536;2023-04-01T15:09:02;14.00;99.90
19174;DHT22;9719;49.322;8.536;2023-04-01T15:14:18;14.10;99.90
19174;DHT22;9719;49.322;8.536;2023-04-01T15:19:31;14.10;99.90
19174;DHT22;9719;49.322;8.536;2023-04-01T15:24:47;14.00;99.90
19174;DHT22;9719;49.322;8.536;2023-04-01T15:29:59;13.90;99.90
19174;DHT22;9719;49.322;8.536;2023-04-01T15:35:15;13.70;99.90
19174;DHT22;9719;49.322;8.536;2023-04-01T15:40:22;13.90;99.90
19174;DHT22;9719;49.322;8.536;2023-04-01T15:45:34;14.10;99.90
19174;DHT22;9719;49.322;8.536;2023-04-01T15:50:51;14.10;99.90
19174;DHT22;9719;49.322;8.536;2023-04-01T15:55:56;14.30;99.90
19174;DHT22;9719;49.322;8.536;2023-04-01T16:01:07;14.10;99.90
19174;DHT22;9719;49.322;8.536;2023-04-01T16:06:37;14.20;99.90
19174;DHT22;9719;49.322;8.536;2023-04-01T16:11:47;14.40;99.90
19174;DHT22;9719;49.322;8.536;2023-04-01T16:17:05;14.40;99.90
19174;DHT22;9719;49.322;8.536;2023-04-01T16:22:14;14.20;99.90
19174;DHT22;9719;49.322;8.536;2023-04-01T16:27:25;14.20;99.90
19174;DHT22;9719;49.322;8.536;2023-04-01T16:32:37;13.80;99.90
19174;DHT22;9719;49.322;8.536;2023-04-01T16:37:48;13.80;99.90
19174;DHT22;9719;49.322;8.536;2023-04-01T16:42:53;13.90;99.90
19174;DHT22;9719;49.322;8.536;2023-04-01T16:47:58;13.90;99.90
19174;DHT22;9719;49.322;8.536;2023-04-01T16:53:10;13.80;99.90
19174;DHT22;9719;49.322;8.536;2023-04-01T16:58:21;13.60;99.90
19174;DHT22;9719;49.322;8.536;2023-04-01T17:03:28;13.50;99.90
19174;DHT22;9719;49.322;8.536;2023-04-01T17:08:54;13.40;99.90
19174;DHT22;9719;49.322;8.536;2023-04-01T17:14:10;13.30;99.90
19174;DHT22;9719;49.322;8.536;2023-04-01T17:19:23;13.20;99.90
19174;DHT22;9719;49.322;8.536;2023-04-01T17:24:41;13.10;99.90
19174;DHT22;9719;49.322;8.536;2023-04-01T17:30:09;13.10;99.90
19174;DHT22;9719;49.322;8.536;2023-04-01T17:35:17;13.10;99.90
19174;DHT22;9719;49.322;8.536;2023-04-01T17:40:34;12.90;99.90
19174;DHT22;9719;49.322;8.536;2023-04-01T17:45:44;12.90;99.90
19174;DHT22;9719;49.322;8.536;2023-04-01T17:50:56;12.90;99.90
19174;DHT22;9719;49.322;8.536;2023-04-01T17:56:14;12.70;99.90
19174;DHT22;9719;49.322;8.536;2023-04-01T18:01:30;12.60;99.90
19174;DHT22;9719;49.322;8.536;2023-04-01T18:06:43;12.60;99.90
19174;DHT22;9719;49.322;8.536;2023-04-01T18:11:58;12.50;99.90
19174;DHT22;9719;49.322;8.536;2023-04-01T18:17:18;12.50;99.90
19174;DHT22;9719;49.322;8.536;2023-04-01T18:22:23;12.50;99.90
19174;DHT22;9719;49.322;8.536;2023-04-01T18:27:33;12.40;99.90
19174;DHT22;9719;49.322;8.536;2023-04-01T18:32:44;12.30;99.90
19174;DHT22;9719;49.322;8.536;2023-04-01T18:37:54;12.20;99.90
19174;DHT22;9719;49.322;8.536;2023-04-01T18:43:08;12.10;99.90
19174;DHT22;9719;49.322;8.536;2023-04-01T18:48:17;11.80;99.90
19174;DHT22;9719;49.322;8.536;2023-04-01T18:53:27;11.40;99.90
19174;DHT22;9719;49.322;8.536;2023-04-01T18:58:35;11.10;99.90
19174;DHT22;9719;49.322;8.536;2023-04-01T19:15:30;10.80;99.90
19174;DHT22;9719;49.322;8.536;2023-04-01T19:20:45;10.90;99.90
19174;DHT22;9719;49.322;8.536;2023-04-01T19:25:58;11.00;99.90
19174;DHT22;9719;49.322;8.536;2023-04-01T19:31:28;11.10;99.90
19174;DHT22;9719;49.322;8.536;2023-04-01T19:36:37;11.20;99.90
19174;DHT22;9719;49.322;8.536;2023-04-01T19:41:46;11.30;99.90
19174;DHT22;9719;49.322;8.536;2023-04-01T19:46:55;11.30;99.90
19174;DHT22;9719;49.322;8.536;2023-04-01T19:52:02;11.30;99.90
19174;DHT22;9719;49.322;8.536;2023-04-01T19:57:16;11.30;99.90
19174;DHT22;9719;49.322;8.536;2023-04-01T20:08:00;11.10;99.90
19174;DHT22;9719;49.322;8.536;2023-04-01T20:13:13;11.00;99.90
19174;DHT22;9719;49.322;8.536;2023-04-01T20:18:22;11.00;99.90
19174;DHT22;9719;49.322;8.536;2023-04-01T20:23:40;11.00;99.90
19174;DHT22;9719;49.322;8.536;2023-04-01T20:28:47;11.00;99.90
19174;DHT22;9719;49.322;8.536;2023-04-01T20:34:22;10.90;99.90
19174;DHT22;9719;49.322;8.536;2023-04-01T20:39:52;10.90;99.90
19174;DHT22;9719;49.322;8.536;2023-04-01T20:45:14;10.80;99.90
19174;DHT22;9719;49.322;8.536;2023-04-01T20:50:25;10.70;99.90
19174;DHT22;9719;49.322;8.536;2023-04-01T20:56:02;10.70;99.90
19174;DHT22;9719;49.322;8.536;2023-04-01T21:01:15;10.60;99.90
19174;DHT22;9719;49.322;8.536;2023-04-01T21:06:36;10.70;99.90
19174;DHT22;9719;49.322;8.536;2023-04-01T21:11:48;10.70;99.90
19174;DHT22;9719;49.322;8.536;2023-04-01T21:17:00;10.60;99.90
19174;DHT22;9719;49.322;8.536;2023-04-01T21:22:26;10.50;99.90
19174;DHT22;9719;49.322;8.536;2023-04-01T21:27:42;10.60;99.90
19174;DHT22;9719;49.322;8.536;2023-04-01T21:33:01;10.50;99.90
19174;DHT22;9719;49.322;8.536;2023-04-01T21:38:20;10.60;99.90
19174;DHT22;9719;49.322;8.536;2023-04-01T22:00:19;10.80;99.90
19174;DHT22;9719;49.322;8.536;2023-04-01T22:05:24;10.80;99.90
19174;DHT22;9719;49.322;8.536;2023-04-01T22:10:32;10.80;99.90
19174;DHT22;9719;49.322;8.536;2023-04-01T22:15:59;10.90;99.90
19174;DHT22;9719;49.322;8.536;2023-04-01T22:21:07;10.90;99.90
19174;DHT22;9719;49.322;8.536;2023-04-01T22:26:17;11.00;99.90
19174;DHT22;9719;49.322;8.536;2023-04-01T22:31:28;10.90;99.90
19174;DHT22;9719;49.322;8.536;2023-04-01T22:36:40;10.90;99.90
19174;DHT22;9719;49.322;8.536;2023-04-01T22:41:59;10.90;99.90
19174;DHT22;9719;49.322;8.536;2023-04-01T22:47:07;10.80;99.90
19174;DHT22;9719;49.322;8.536;2023-04-01T22:52:20;10.90;99.90
19174;DHT22;9719;49.322;8.536;2023-04-01T22:57:37;10.80;99.90
19174;DHT22;9719;49.322;8.536;2023-04-01T23:02:46;10.90;99.90
19174;DHT22;9719;49.322;8.536;2023-04-01T23:07:56;11.00;99.90
19174;DHT22;9719;49.322;8.536;2023-04-01T23:13:02;11.00;99.90
19174;DHT22;9719;49.322;8.536;2023-04-01T23:18:12;10.90;99.90
19174;DHT22;9719;49.322;8.536;2023-04-01T23:23:26;10.90;99.90
19174;DHT22;9719;49.322;8.536;2023-04-01T23:28:46;10.80;99.90
19174;DHT22;9719;49.322;8.536;2023-04-01T23:33:58;10.40;99.90
19174;DHT22;9719;49.322;8.536;2023-04-01T23:39:05;10.00;99.90
19174;DHT22;9719;49.322;8.536;2023-04-01T23:44:10;9.90;99.90
19174;DHT22;9719;49.322;8.536;2023-04-01T23:49:19;9.70;99.90
19174;DHT22;9719;49.322;8.536;2023-04-01T23:54:31;9.70;99.90
19174;DHT22;9719;49.322;8.536;2023-04-01T23:59:36;9.60;99.90
